To NAV CANADA Home Page Login to a new session Search on AWWS site Feedback and Comments Disclaimer Vers la page française équivalente Tips FAQ What's new on the site To the Forecasts and Observations / NOTAM section To "File a Flight Plan" website Publications and other links Update of the User's profile FIC Telephone Numbers My Weather Data Folder Route Weather Data Regional Weather Data Local Weather Data To the Forecasts and Observations / NOTAM section
Request Generated 12/04/2016 at 22:23:41 UTC . Weather information available at that time is displayed.

METAR/TAF

FORT CHIPEWYAN/AB    (show WxCam)

SPECI CYPY 042214Z AUTO 33010G25KT 9SM -SN SCT017 OVC055 M09/M11
A2970 RMK PRESRR SLP078=
METAR CYPY 042200Z AUTO 32018G25KT 9SM -SN BKN017 OVC055 M09/M11
A2969 RMK SLP073=
METAR CYPY 042100Z AUTO 33013G20KT 300V010 9SM -SN OVC021 M08/M10
A2968 RMK SLP069=
METAR CYPY 042000Z AUTO 32008KT 8SM -SN OVC019 M08/M10 A2966 RMK
SLP064=

*** REMARK        : Forecast period has ended; this was the last TAF issued
*** REMARQUE : La période de prévision est échue; ceci était le dernier TAF qui a été émis
TAF CYPY 041738Z 0418/0422 32012KT P6SM -SN OVC030 TEMPO 0418/0422
2SM -SN OVC020
RMK FCST BASED ON AUTO OBS. NXT FCST WILL BE ISSUED AT 051245Z=
Your time UTC time
Weather data provided by Environment Canada and NAV CANADA